createdAt,value
2022-10-17T00:00:59.289Z,1.97
2022-10-17T00:03:46.277Z,2.77
2022-10-17T00:06:33.220Z,2.13
2022-10-17T00:09:20.195Z,2.53
2022-10-17T00:12:07.155Z,2.20
2022-10-17T00:14:54.087Z,2.10
2022-10-17T00:17:41.938Z,1.90
2022-10-17T00:20:30.415Z,1.70
2022-10-17T00:23:17.923Z,1.60
2022-10-17T00:26:06.080Z,1.70
2022-10-17T00:28:53.557Z,1.73
2022-10-17T00:31:40.718Z,1.50
2022-10-17T00:34:29.708Z,3.10
2022-10-17T00:37:16.960Z,1.97
2022-10-17T00:40:05.832Z,1.97
2022-10-17T00:42:53.169Z,1.83
2022-10-17T00:45:40.227Z,1.67
2022-10-17T00:48:27.263Z,1.57
2022-10-17T00:51:15.599Z,1.43
2022-10-17T00:54:03.754Z,1.60
2022-10-17T00:56:51.738Z,1.17
2022-10-17T00:59:41.630Z,1.17
2022-10-17T01:02:28.934Z,1.03
2022-10-17T01:05:18.713Z,1.63
2022-10-17T01:08:06.363Z,1.20
2022-10-17T01:10:58.989Z,1.30
2022-10-17T01:13:57.247Z,1.47
2022-10-17T01:16:58.538Z,1.70
2022-10-17T01:20:27.426Z,3.60
2022-10-17T01:23:33.041Z,1.27
2022-10-17T01:26:33.735Z,1.97
2022-10-17T01:29:23.736Z,1.27
2022-10-17T01:32:36.957Z,1.00
2022-10-17T01:35:30.951Z,1.53
2022-10-17T01:38:23.792Z,1.47
2022-10-17T01:41:32.179Z,1.63
2022-10-17T01:44:27.550Z,1.60
2022-10-17T01:47:19.838Z,1.60
2022-10-17T01:50:13.953Z,2.30
2022-10-17T01:53:08.696Z,1.47
2022-10-17T01:55:59.143Z,1.73
2022-10-17T01:59:04.432Z,1.20
2022-10-17T02:01:55.497Z,1.23
2022-10-17T02:04:43.856Z,1.40
2022-10-17T02:07:31.099Z,1.73
2022-10-17T02:10:44.966Z,1.17
2022-10-17T02:13:49.776Z,2.00
2022-10-17T02:16:55.674Z,2.63
2022-10-17T02:20:03.352Z,2.07
2022-10-17T02:23:15.241Z,1.50
2022-10-17T02:26:05.811Z,1.10
2022-10-17T02:29:28.414Z,1.27
2022-10-17T02:32:28.871Z,2.80
2022-10-17T02:35:19.542Z,1.90
2022-10-17T02:38:09.416Z,1.57
2022-10-17T02:40:56.834Z,1.60
2022-10-17T02:43:45.746Z,1.50
2022-10-17T02:46:35.528Z,2.73
2022-10-17T02:49:34.143Z,1.50
2022-10-17T02:52:34.835Z,1.40
2022-10-17T02:55:32.735Z,2.10
2022-10-17T02:58:25.952Z,2.87
2022-10-17T03:01:13.899Z,1.60
2022-10-17T03:04:06.662Z,1.40
2022-10-17T03:06:53.656Z,3.87
2022-10-17T03:09:40.670Z,2.37
2022-10-17T03:12:28.123Z,3.00
2022-10-17T03:15:15.417Z,2.33
2022-10-17T03:18:03.367Z,2.07
2022-10-17T03:20:50.342Z,1.93
2022-10-17T03:23:37.356Z,0.93
2022-10-17T03:26:26.064Z,0.90
2022-10-17T03:29:13.899Z,1.17
2022-10-17T03:32:00.953Z,1.30
2022-10-17T03:34:48.053Z,1.83
2022-10-17T03:37:35.056Z,1.80
2022-10-17T03:40:22.245Z,3.40
2022-10-17T03:43:11.317Z,6.93
2022-10-17T03:46:00.665Z,2.33
2022-10-17T03:48:47.637Z,3.27
2022-10-17T03:51:35.263Z,2.80
2022-10-17T03:54:26.649Z,2.50
2022-10-17T03:57:13.909Z,2.27
2022-10-17T04:00:00.910Z,2.47
2022-10-17T04:02:48.053Z,2.40
2022-10-17T04:05:38.855Z,2.53
2022-10-17T04:08:26.661Z,2.80
2022-10-17T04:11:25.008Z,3.53
2022-10-17T04:14:14.366Z,4.37
2022-10-17T04:17:02.341Z,3.27
2022-10-17T04:19:50.621Z,3.13
2022-10-17T04:22:38.884Z,3.60
2022-10-17T04:25:26.543Z,3.80
2022-10-17T04:28:14.108Z,3.23
2022-10-17T04:31:11.936Z,3.40
2022-10-17T04:34:18.655Z,2.77
2022-10-17T04:37:05.641Z,2.43
2022-10-17T04:39:53.715Z,2.27
2022-10-17T04:42:40.897Z,2.93
2022-10-17T04:45:30.175Z,3.40
2022-10-17T04:48:20.859Z,2.50
2022-10-17T04:51:14.772Z,3.50
2022-10-17T04:54:18.264Z,3.93
2022-10-17T04:57:08.656Z,3.63
2022-10-17T04:59:55.789Z,4.80
2022-10-17T05:02:49.292Z,6.03
2022-10-17T05:05:43.099Z,2.63
2022-10-17T05:08:31.177Z,2.93
2022-10-17T05:11:24.722Z,3.33
2022-10-17T05:14:11.726Z,3.00
2022-10-17T05:16:58.779Z,4.10
2022-10-17T05:19:46.185Z,3.57
2022-10-17T05:22:34.511Z,3.43
2022-10-17T05:25:25.051Z,4.73
2022-10-17T05:28:12.052Z,3.30
2022-10-17T05:31:09.321Z,3.07
2022-10-17T05:34:00.347Z,2.83
2022-10-17T05:36:47.549Z,2.30
2022-10-17T05:39:38.199Z,2.60
2022-10-17T05:42:25.742Z,2.70
2022-10-17T05:45:13.303Z,2.10
2022-10-17T05:48:01.678Z,2.40
2022-10-17T05:50:49.552Z,1.70
2022-10-17T05:53:40.177Z,1.80
2022-10-17T05:56:31.198Z,1.50
2022-10-17T05:59:18.305Z,2.00
2022-10-17T06:02:16.558Z,1.60
2022-10-17T06:05:03.856Z,2.00
2022-10-17T06:07:52.518Z,2.07
2022-10-17T06:10:40.518Z,1.77
2022-10-17T06:13:27.745Z,2.13
2022-10-17T06:16:15.667Z,2.47
2022-10-17T06:19:02.710Z,2.10
2022-10-17T06:21:49.713Z,2.30
2022-10-17T06:24:41.140Z,2.20
2022-10-17T06:27:28.284Z,2.63
2022-10-17T06:30:15.450Z,2.67
2022-10-17T06:33:02.449Z,2.30
2022-10-17T06:35:54.434Z,2.50
2022-10-17T06:38:42.854Z,2.70
2022-10-17T06:41:39.548Z,3.30
2022-10-17T06:44:31.924Z,2.90
2022-10-17T06:47:41.534Z,3.00
2022-10-17T06:50:43.609Z,3.03
2022-10-17T06:53:35.647Z,2.97
2022-10-17T06:56:45.825Z,2.90
2022-10-17T06:59:47.772Z,3.17
2022-10-17T07:02:39.551Z,3.30
2022-10-17T07:05:26.635Z,3.63
2022-10-17T07:08:13.592Z,3.53
2022-10-17T07:11:12.619Z,3.10
2022-10-17T07:13:59.621Z,3.50
2022-10-17T07:16:46.695Z,3.77
2022-10-17T07:19:45.313Z,3.43
2022-10-17T07:22:32.820Z,3.93
2022-10-17T07:25:20.296Z,4.07
2022-10-17T07:28:11.441Z,3.80
2022-10-17T07:31:05.671Z,3.73
2022-10-17T07:33:53.247Z,4.33
2022-10-17T07:36:41.088Z,4.60
2022-10-17T07:39:29.567Z,4.23
2022-10-17T07:42:16.887Z,4.37
2022-10-17T07:45:05.499Z,4.00
2022-10-17T07:47:57.357Z,4.70
2022-10-17T07:50:44.753Z,4.60
2022-10-17T07:53:31.980Z,4.53
2022-10-17T07:56:19.153Z,4.80
2022-10-17T07:59:09.169Z,4.80
2022-10-17T08:01:56.976Z,5.83
2022-10-17T08:04:43.942Z,5.40
2022-10-17T08:07:31.175Z,6.20
2022-10-17T08:10:18.268Z,6.20
2022-10-17T08:13:05.324Z,5.47
2022-10-17T08:15:52.428Z,6.30
2022-10-17T08:18:41.132Z,6.53
2022-10-17T08:21:28.147Z,7.33
2022-10-17T08:24:15.118Z,6.23
2022-10-17T08:27:02.181Z,7.40
2022-10-17T08:29:52.776Z,7.33
2022-10-17T08:32:40.104Z,7.97
2022-10-17T08:35:27.181Z,7.57
2022-10-17T08:38:15.290Z,7.87
2022-10-17T08:41:13.660Z,7.67
2022-10-17T08:44:12.571Z,7.80
2022-10-17T08:47:03.410Z,8.23
2022-10-17T08:49:57.254Z,7.57
2022-10-17T08:52:57.826Z,7.93
2022-10-17T08:55:48.616Z,8.27
2022-10-17T08:58:36.819Z,7.90
2022-10-17T09:01:36.651Z,7.10
2022-10-17T09:04:33.256Z,6.10
2022-10-17T09:07:39.203Z,7.53
2022-10-17T09:10:58.676Z,7.13
2022-10-17T09:14:00.831Z,7.20
2022-10-17T09:17:21.085Z,7.13
2022-10-17T09:20:20.823Z,6.83
2022-10-17T09:23:16.829Z,6.63
2022-10-17T09:26:03.913Z,7.00
2022-10-17T09:28:59.246Z,7.47
2022-10-17T09:31:54.877Z,7.03
2022-10-17T09:34:42.223Z,6.87
2022-10-17T09:37:31.497Z,7.23
2022-10-17T09:40:24.971Z,8.10
2022-10-17T09:43:15.301Z,7.77
2022-10-17T09:46:15.503Z,8.57
2022-10-17T09:49:17.223Z,8.30
2022-10-17T09:52:10.739Z,7.23
2022-10-17T09:55:07.420Z,7.77
2022-10-17T09:58:03.148Z,15.80
2022-10-17T10:00:50.271Z,9.17
2022-10-17T10:03:37.249Z,7.93
2022-10-17T10:06:24.246Z,7.17
2022-10-17T10:09:25.563Z,6.63
2022-10-17T10:12:31.265Z,7.07
2022-10-17T10:15:37.074Z,5.63
2022-10-17T10:18:27.001Z,5.67
2022-10-17T10:21:22.534Z,6.00
2022-10-17T10:24:09.490Z,5.83
2022-10-17T10:27:00.151Z,5.50
2022-10-17T10:29:52.880Z,5.80
2022-10-17T10:32:39.930Z,4.93
2022-10-17T10:35:37.527Z,5.13
2022-10-17T10:38:24.979Z,5.13
2022-10-17T10:41:12.007Z,4.90
2022-10-17T10:43:59.157Z,4.83
2022-10-17T10:46:46.200Z,4.43
2022-10-17T10:49:33.347Z,4.43
2022-10-17T10:52:43.665Z,5.23
2022-10-17T10:55:35.685Z,5.10
2022-10-17T10:58:51.333Z,5.23
2022-10-17T11:01:52.558Z,5.40
2022-10-17T11:04:47.519Z,4.80
2022-10-17T11:07:56.101Z,5.37
2022-10-17T11:11:23.801Z,4.63
2022-10-17T11:14:58.331Z,4.37
2022-10-17T11:18:02.810Z,4.70
2022-10-17T11:21:11.759Z,4.50
2022-10-17T11:24:32.868Z,5.17
2022-10-17T11:27:19.927Z,5.23
2022-10-17T11:30:12.395Z,5.37
2022-10-17T11:33:04.946Z,6.13
2022-10-17T11:35:55.486Z,5.63
2022-10-17T11:38:50.959Z,10.67
2022-10-17T11:41:45.201Z,5.67
2022-10-17T11:44:37.822Z,4.43
2022-10-17T11:47:45.405Z,3.90
2022-10-17T11:54:17.625Z,5.77
2022-10-17T11:57:40.118Z,4.93
2022-10-17T12:00:58.173Z,3.80
2022-10-17T12:04:17.735Z,3.47
2022-10-17T12:07:23.651Z,3.77
2022-10-17T12:10:34.531Z,4.13
2022-10-17T12:13:33.639Z,3.73
2022-10-17T12:16:20.613Z,4.07
2022-10-17T12:19:07.537Z,4.27
2022-10-17T12:22:05.223Z,5.90
2022-10-17T12:25:19.665Z,3.90
2022-10-17T12:28:06.614Z,3.70
2022-10-17T12:31:02.173Z,3.37
2022-10-17T12:33:53.285Z,3.43
2022-10-17T12:36:40.422Z,3.47
2022-10-17T12:39:27.779Z,3.80
2022-10-17T12:42:49.003Z,3.70
2022-10-17T12:45:55.527Z,3.60
2022-10-17T12:48:42.487Z,4.47
2022-10-17T12:51:35.844Z,4.07
2022-10-17T12:54:24.130Z,5.23
2022-10-17T12:57:23.830Z,3.53
2022-10-17T13:00:32.794Z,3.93
2022-10-17T13:03:28.017Z,3.30
2022-10-17T13:06:21.580Z,3.63
2022-10-17T13:09:35.595Z,4.07
2022-10-17T13:12:25.624Z,3.37
2022-10-17T13:15:17.744Z,3.47
2022-10-17T13:18:04.887Z,3.23
2022-10-17T13:20:59.669Z,3.00
2022-10-17T13:23:49.255Z,2.70
2022-10-17T13:26:36.273Z,2.70
2022-10-17T13:29:25.721Z,2.40
2022-10-17T13:32:12.847Z,2.40
2022-10-17T13:35:14.497Z,2.30
2022-10-17T13:38:04.585Z,2.00
2022-10-17T13:40:51.662Z,2.17
2022-10-17T13:43:39.010Z,1.90
2022-10-17T13:46:37.978Z,2.13
2022-10-17T13:49:40.882Z,2.37
2022-10-17T13:52:30.148Z,2.23
2022-10-17T13:55:20.101Z,2.90
2022-10-17T13:58:17.482Z,1.80
2022-10-17T14:01:04.961Z,2.83
2022-10-17T14:04:07.078Z,2.10
2022-10-17T14:06:55.726Z,2.20
2022-10-17T14:09:46.639Z,2.27
2022-10-17T14:12:34.407Z,2.83
2022-10-17T14:15:26.329Z,3.37
2022-10-17T14:18:24.036Z,3.77
2022-10-17T14:24:20.930Z,2.93
2022-10-17T14:27:28.954Z,2.97
2022-10-17T14:30:55.698Z,3.60
2022-10-17T14:33:50.850Z,4.47
2022-10-17T14:36:42.585Z,4.37
2022-10-17T14:39:29.753Z,4.23
2022-10-17T14:42:21.640Z,4.70
2022-10-17T14:45:14.590Z,4.77
2022-10-17T14:48:22.996Z,4.97
2022-10-17T14:51:15.246Z,4.57
2022-10-17T14:54:24.680Z,4.37
2022-10-17T14:57:28.688Z,4.83
2022-10-17T15:00:21.303Z,5.10
2022-10-17T15:03:08.354Z,3.90
2022-10-17T15:05:55.569Z,4.77
2022-10-17T15:11:30.377Z,4.80
2022-10-17T15:14:17.325Z,5.07
2022-10-17T15:17:13.749Z,5.03
2022-10-17T15:20:00.698Z,5.60
2022-10-17T15:22:48.029Z,5.00
2022-10-17T15:25:35.078Z,4.60
2022-10-17T15:28:22.133Z,4.63
2022-10-17T15:31:12.575Z,5.47
2022-10-17T15:33:59.630Z,4.57
2022-10-17T15:36:51.825Z,4.43
2022-10-17T15:39:38.797Z,4.27
2022-10-17T15:42:29.965Z,4.27
2022-10-17T15:45:18.938Z,3.80
2022-10-17T15:48:07.374Z,3.80
2022-10-17T15:50:54.306Z,3.90
2022-10-17T15:53:41.642Z,3.63
2022-10-17T15:56:37.623Z,3.47
2022-10-17T15:59:31.908Z,3.77
2022-10-17T16:02:23.217Z,3.80
2022-10-17T16:05:17.022Z,4.07
2022-10-17T16:08:04.296Z,4.20
2022-10-17T16:10:51.829Z,3.37
2022-10-17T16:13:38.980Z,3.60
2022-10-17T16:16:26.379Z,4.20
2022-10-17T16:19:13.445Z,3.53
2022-10-17T16:22:04.553Z,3.60
2022-10-17T16:24:58.276Z,4.23
2022-10-17T16:27:49.945Z,4.73
2022-10-17T16:30:44.775Z,3.50
2022-10-17T16:33:31.791Z,4.13
2022-10-17T16:36:19.415Z,3.40
2022-10-17T16:39:07.083Z,3.40
2022-10-17T16:41:57.712Z,5.03
2022-10-17T16:44:45.691Z,3.33
2022-10-17T16:47:32.669Z,4.60
2022-10-17T16:50:19.988Z,4.40
2022-10-17T16:53:07.022Z,4.63
2022-10-17T16:56:04.631Z,3.70
2022-10-17T16:58:51.871Z,2.83
2022-10-17T17:01:38.874Z,3.83
2022-10-17T17:04:26.018Z,2.70
2022-10-17T17:07:13.026Z,2.50
2022-10-17T17:09:59.965Z,3.70
2022-10-17T17:12:47.045Z,12.33
2022-10-17T17:15:33.986Z,6.17
2022-10-17T17:18:21.918Z,2.57
2022-10-17T17:21:10.461Z,2.97
2022-10-17T17:23:59.866Z,3.60
2022-10-17T17:26:51.070Z,10.70
2022-10-17T17:29:38.027Z,7.47
2022-10-17T17:32:25.033Z,5.40
2022-10-17T17:35:11.978Z,3.30
2022-10-17T17:37:58.955Z,3.37
2022-10-17T17:40:50.691Z,3.40
2022-10-17T17:43:38.107Z,4.27
2022-10-17T17:46:25.726Z,3.50
2022-10-17T17:49:12.800Z,2.33
2022-10-17T17:51:59.775Z,2.83
2022-10-17T17:54:46.796Z,3.90
2022-10-17T17:57:33.726Z,3.90
2022-10-17T18:00:20.686Z,3.93
2022-10-17T18:03:07.951Z,3.77
2022-10-17T18:05:54.922Z,2.67
2022-10-17T18:08:45.419Z,2.93
2022-10-17T18:11:32.965Z,3.40
2022-10-17T18:14:23.718Z,3.30
2022-10-17T18:17:10.811Z,4.80
2022-10-17T18:19:57.736Z,5.07
2022-10-17T18:22:44.787Z,3.80
2022-10-17T18:25:31.777Z,4.67
2022-10-17T18:28:19.240Z,3.23
2022-10-17T18:31:10.329Z,3.80
2022-10-17T18:34:00.164Z,3.30
2022-10-17T18:36:47.238Z,2.43
2022-10-17T18:39:34.423Z,2.40
2022-10-17T18:42:21.433Z,3.00
2022-10-17T18:45:09.087Z,3.57
2022-10-17T18:47:56.064Z,2.90
2022-10-17T18:50:43.026Z,3.97
2022-10-17T18:53:30.288Z,3.67
2022-10-17T18:56:18.590Z,3.20
2022-10-17T18:59:05.818Z,2.60
2022-10-17T19:01:52.876Z,2.63
2022-10-17T19:04:40.253Z,2.30
2022-10-17T19:07:27.491Z,2.30
2022-10-17T19:10:14.763Z,2.00
2022-10-17T19:13:01.706Z,2.40
2022-10-17T19:15:48.704Z,2.00
2022-10-17T19:18:36.696Z,2.80
2022-10-17T19:21:24.417Z,2.20
2022-10-17T19:24:14.480Z,2.83
2022-10-17T19:27:05.219Z,2.93
2022-10-17T19:29:52.237Z,2.33
2022-10-17T19:32:39.268Z,1.17
2022-10-17T19:35:26.364Z,2.33
2022-10-17T19:38:13.340Z,3.17
2022-10-17T19:43:52.662Z,2.43
2022-10-17T19:46:40.337Z,1.40
2022-10-17T19:49:27.359Z,2.10
2022-10-17T19:52:14.315Z,2.23
2022-10-17T19:55:01.615Z,2.70
2022-10-17T19:57:48.568Z,2.97
2022-10-17T20:00:35.665Z,3.93
2022-10-17T20:03:23.845Z,3.70
2022-10-17T20:06:11.907Z,4.47
2022-10-17T20:08:59.600Z,3.80
2022-10-17T20:11:49.246Z,3.00
2022-10-17T20:14:40.750Z,2.90
2022-10-17T20:17:28.059Z,3.60
2022-10-17T20:20:15.158Z,2.90
2022-10-17T20:23:03.044Z,3.53
2022-10-17T20:26:08.048Z,4.73
2022-10-17T20:29:12.147Z,5.00
2022-10-17T20:31:59.231Z,3.20
2022-10-17T20:34:46.159Z,4.30
2022-10-17T20:37:38.542Z,3.67
2022-10-17T20:40:36.024Z,2.87
2022-10-17T20:43:23.021Z,2.70
2022-10-17T20:46:23.551Z,2.67
2022-10-17T20:49:19.220Z,2.83
2022-10-17T20:52:06.999Z,2.50
2022-10-17T20:54:53.953Z,2.77
2022-10-17T20:57:40.922Z,2.20
2022-10-17T21:00:27.873Z,4.37
2022-10-17T21:03:14.875Z,2.67
2022-10-17T21:06:02.063Z,4.77
2022-10-17T21:08:49.977Z,4.20
2022-10-17T21:11:37.053Z,4.40
2022-10-17T21:14:25.265Z,4.37
2022-10-17T21:17:12.219Z,4.03
2022-10-17T21:19:59.145Z,6.57
2022-10-17T21:22:46.108Z,4.93
2022-10-17T21:25:33.055Z,4.87
2022-10-17T21:28:20.069Z,2.03
2022-10-17T21:31:11.540Z,2.30
2022-10-17T21:34:04.524Z,4.40
2022-10-17T21:36:51.924Z,3.30
2022-10-17T21:39:38.936Z,3.30
2022-10-17T21:42:25.927Z,3.50
2022-10-17T21:45:20.016Z,5.20
2022-10-17T21:48:13.174Z,5.50
2022-10-17T21:51:02.869Z,3.30
2022-10-17T21:53:51.402Z,4.33
2022-10-17T21:56:38.386Z,5.20
2022-10-17T21:59:25.301Z,3.93
2022-10-17T22:02:14.599Z,3.10
2022-10-17T22:05:01.595Z,4.03
2022-10-17T22:07:48.562Z,3.60
2022-10-17T22:10:39.684Z,3.97
2022-10-17T22:13:26.706Z,4.00
2022-10-17T22:16:15.566Z,2.83
2022-10-17T22:19:06.237Z,2.77
2022-10-17T22:21:54.839Z,2.80
2022-10-17T22:24:41.803Z,2.40
2022-10-17T22:27:29.122Z,2.67
2022-10-17T22:30:16.363Z,3.30
2022-10-17T22:33:03.403Z,3.27
2022-10-17T22:35:50.360Z,3.77
2022-10-17T22:38:37.508Z,3.50
2022-10-17T22:41:24.480Z,3.40
2022-10-17T22:44:11.547Z,3.63
2022-10-17T22:46:58.601Z,3.77
2022-10-17T22:49:45.524Z,3.60
2022-10-17T22:52:32.854Z,3.40
2022-10-17T22:55:20.063Z,4.17
2022-10-17T22:58:07.029Z,3.17
2022-10-17T23:00:55.055Z,2.40
2022-10-17T23:03:42.445Z,2.13
2022-10-17T23:06:29.430Z,5.13
2022-10-17T23:09:16.388Z,4.43
2022-10-17T23:12:03.789Z,4.37
2022-10-17T23:14:50.806Z,4.33
2022-10-17T23:17:37.801Z,4.73
2022-10-17T23:20:25.129Z,5.57
2022-10-17T23:23:12.315Z,7.07
2022-10-17T23:26:11.508Z,6.83
2022-10-17T23:28:58.507Z,3.57
2022-10-17T23:31:45.737Z,2.73
2022-10-17T23:34:32.699Z,2.67
2022-10-17T23:37:19.656Z,3.00
2022-10-17T23:40:07.709Z,5.70
2022-10-17T23:42:54.693Z,3.53
2022-10-17T23:45:42.351Z,4.17
2022-10-17T23:48:29.778Z,3.00
2022-10-17T23:51:17.401Z,2.90
2022-10-17T23:54:04.738Z,3.63
2022-10-17T23:56:51.726Z,2.87
2022-10-17T23:59:38.666Z,2.43
